Terminal Aerodrome Forecast
Issued by NWS Tampa Bay Area, FL

Home | Current Version | Previous Version | Text Only | Print | Product List | Glossary On
Versions: 1 2 3 4 5 6 7 8 9 10 11 12 13 14
000
FTUS42 KTBW 241127
TAFSRQ
TAF
KSRQ 241127Z 2412/2512 07006KT P6SM FEW015 FEW250
     FM241400 10010KT P6SM SCT035 SCT250
     FM242000 26008KT P6SM VCTS BKN050CB BKN100
     FM250000 09009KT P6SM SCT025 BKN050 OVC100
     FM250300 09008KT P6SM SCT050 SCT100 BKN250
     FM250800 08007KT P6SM FEW100 SCT250=

USA.gov is the U.S. government's official web portal to all federal, state and local government web resources and services.